Time;durP1;ratioP1;P1;durP2;ratioP2;P2;SDS_P1;SDS_P2;PMS_P1;PMS_P2;Temp;Humidity;BMP_temperature;BMP_pressure;BME280_temperature;BME280_humidity;BME280_pressure;Samples;Min_cycle;Max_cycle;Signal;HPM_P1;HPM_P2
2023/08/07 00:00:23;;;;;;;7.57;2.72;;;;;;;;;;5073299;28;20052;-72
2023/08/07 00:02:49;;;;;;;7.95;2.63;;;;;;;;;;5060580;28;20027;-72
2023/08/07 00:05:18;;;;;;;6.18;2.33;;;;;;;;;;5057929;28;20047;-72
2023/08/07 00:07:44;;;;;;;8.35;2.58;;;;;;;;;;5053329;28;20036;-74
2023/08/07 00:10:10;;;;;;;8.48;2.60;;;;;;;;;;5053784;28;20374;-72
2023/08/07 00:12:37;;;;;;;5.13;2.03;;;;;;;;;;5053225;28;20048;-74
2023/08/07 00:15:04;;;;;;;12.07;2.30;;;;;;;;;;5053771;28;20029;-73
2023/08/07 00:17:30;;;;;;;5.30;2.25;;;;;;;;;;5053819;28;20029;-72
2023/08/07 00:19:56;;;;;;;9.23;2.20;;;;;;;;;;5053521;28;20013;-73
2023/08/07 00:22:22;;;;;;;6.15;2.40;;;;;;;;;;5056517;28;20390;-73
2023/08/07 00:24:48;;;;;;;5.97;2.55;;;;;;;;;;5055886;28;20075;-73
2023/08/07 00:27:14;;;;;;;4.45;2.25;;;;;;;;;;5055282;28;20029;-72
2023/08/07 00:29:40;;;;;;;5.18;2.13;;;;;;;;;;5054932;28;20029;-72
2023/08/07 00:32:06;;;;;;;5.97;2.35;;;;;;;;;;5054962;28;20039;-72
2023/08/07 00:34:32;;;;;;;4.22;2.10;;;;;;;;;;5061074;28;20036;-72
2023/08/07 00:36:58;;;;;;;6.07;2.42;;;;;;;;;;5056502;28;20108;-72
2023/08/07 00:39:24;;;;;;;7.57;2.95;;;;;;;;;;5055287;28;20483;-71
2023/08/07 00:41:50;;;;;;;6.47;2.45;;;;;;;;;;5059063;28;20049;-71
2023/08/07 00:44:16;;;;;;;4.43;2.10;;;;;;;;;;5058274;28;20025;-72
2023/08/07 00:46:43;;;;;;;8.70;2.45;;;;;;;;;;5054460;28;20025;-72
2023/08/07 00:49:10;;;;;;;7.28;2.30;;;;;;;;;;5056566;28;20032;-72
2023/08/07 00:51:36;;;;;;;5.13;2.13;;;;;;;;;;5057601;28;20426;-72
2023/08/07 00:54:03;;;;;;;7.80;2.30;;;;;;;;;;5057919;28;20029;-72
2023/08/07 00:56:30;;;;;;;5.05;1.98;;;;;;;;;;5058452;28;20028;-71
2023/08/07 00:58:56;;;;;;;7.95;2.17;;;;;;;;;;5054575;28;20028;-71
2023/08/07 01:01:22;;;;;;;6.88;2.53;;;;;;;;;;5052878;28;20025;-71
2023/08/07 01:03:48;;;;;;;6.25;2.03;;;;;;;;;;5052198;28;20500;-72
2023/08/07 01:06:14;;;;;;;6.95;2.47;;;;;;;;;;5052671;28;20064;-73
2023/08/07 01:08:40;;;;;;;5.47;1.92;;;;;;;;;;5052512;28;20017;-73
2023/08/07 01:11:11;;;;;;;5.53;2.20;;;;;;;;;;5052381;28;20404;-72
2023/08/07 01:13:57;;;;;;;5.70;2.13;;;;;;;;;;5052330;28;20470;-73
2023/08/07 01:16:34;;;;;;;6.38;2.40;;;;;;;;;;5052278;28;20028;-72
2023/08/07 01:19:02;;;;;;;7.28;2.15;;;;;;;;;;5052414;28;20029;-72
2023/08/07 01:21:28;;;;;;;6.53;2.85;;;;;;;;;;5051794;28;20475;-72
2023/08/07 01:23:54;;;;;;;4.28;2.17;;;;;;;;;;5051963;28;20047;-72
2023/08/07 01:26:21;;;;;;;5.55;2.13;;;;;;;;;;5052165;28;20387;-72
2023/08/07 01:28:50;;;;;;;4.72;2.08;;;;;;;;;;5052599;28;20079;-72
2023/08/07 01:31:21;;;;;;;7.70;3.00;;;;;;;;;;5052191;28;20032;-72
2023/08/07 01:34:08;;;;;;;5.35;2.22;;;;;;;;;;5052035;28;20554;-73
2023/08/07 01:36:35;;;;;;;7.05;2.50;;;;;;;;;;5052301;28;20103;-73
2023/08/07 01:39:03;;;;;;;7.03;2.40;;;;;;;;;;5052407;28;20059;-73
2023/08/07 01:41:29;;;;;;;5.95;2.30;;;;;;;;;;5053921;28;20022;-72
2023/08/07 01:43:55;;;;;;;5.72;2.33;;;;;;;;;;5053797;28;20025;-71
2023/08/07 01:46:21;;;;;;;6.72;2.25;;;;;;;;;;5053295;28;20029;-72
2023/08/07 01:48:47;;;;;;;7.05;2.33;;;;;;;;;;5053903;28;20105;-72
2023/08/07 01:51:13;;;;;;;5.63;2.45;;;;;;;;;;5054187;28;20025;-72
2023/08/07 01:53:39;;;;;;;6.32;2.20;;;;;;;;;;5054252;28;20163;-72
2023/08/07 01:56:05;;;;;;;6.85;2.72;;;;;;;;;;5053583;28;20028;-73
2023/08/07 01:58:31;;;;;;;3.83;2.50;;;;;;;;;;5053610;28;20024;-72
2023/08/07 02:00:57;;;;;;;6.75;2.33;;;;;;;;;;5053252;28;20021;-72
2023/08/07 02:03:23;;;;;;;4.28;2.08;;;;;;;;;;5051297;28;20036;-71
2023/08/07 02:05:49;;;;;;;6.90;2.30;;;;;;;;;;5051557;28;20083;-70
2023/08/07 02:08:15;;;;;;;6.90;2.35;;;;;;;;;;5051578;28;20099;-71
2023/08/07 02:10:41;;;;;;;10.05;2.30;;;;;;;;;;5050252;28;20039;-72
2023/08/07 02:13:07;;;;;;;6.80;2.55;;;;;;;;;;5051921;28;20021;-72
2023/08/07 02:15:33;;;;;;;6.60;2.38;;;;;;;;;;5051559;28;20048;-71
2023/08/07 02:17:59;;;;;;;8.90;2.58;;;;;;;;;;5051327;28;20025;-71
2023/08/07 02:20:25;;;;;;;6.03;2.53;;;;;;;;;;5051528;28;20112;-71
2023/08/07 02:22:51;;;;;;;6.50;2.20;;;;;;;;;;5066166;28;20033;-71
2023/08/07 02:25:17;;;;;;;3.33;2.20;;;;;;;;;;5071317;28;20021;-72
2023/08/07 02:27:43;;;;;;;7.38;2.42;;;;;;;;;;5038777;28;20029;-71
2023/08/07 02:30:09;;;;;;;5.47;2.20;;;;;;;;;;5031388;28;20025;-72
2023/08/07 02:32:35;;;;;;;7.60;2.38;;;;;;;;;;5030471;28;20033;-72
2023/08/07 02:35:01;;;;;;;6.78;2.28;;;;;;;;;;5033603;28;20087;-72
2023/08/07 02:37:27;;;;;;;3.70;2.00;;;;;;;;;;5035093;28;20537;-72
2023/08/07 02:39:53;;;;;;;8.85;2.47;;;;;;;;;;5035375;28;20109;-72
2023/08/07 02:42:20;;;;;;;6.40;2.42;;;;;;;;;;5034748;28;20026;-72
2023/08/07 02:44:46;;;;;;;6.85;2.58;;;;;;;;;;5035282;28;20031;-72
2023/08/07 02:47:12;;;;;;;9.88;2.45;;;;;;;;;;5034917;28;20067;-72
2023/08/07 02:49:38;;;;;;;6.20;2.30;;;;;;;;;;5035083;28;20028;-72
2023/08/07 02:52:04;;;;;;;10.77;2.40;;;;;;;;;;5034665;28;20113;-72
2023/08/07 02:54:30;;;;;;;8.07;2.45;;;;;;;;;;5035112;28;20029;-72
2023/08/07 02:56:58;;;;;;;6.78;2.00;;;;;;;;;;5034813;28;20383;-72
2023/08/07 02:59:24;;;;;;;6.15;2.10;;;;;;;;;;5054764;28;20102;-73
2023/08/07 03:01:50;;;;;;;3.97;2.08;;;;;;;;;;5054209;28;20050;-73
2023/08/07 03:04:16;;;;;;;6.63;2.08;;;;;;;;;;5054651;28;20527;-73
2023/08/07 03:06:42;;;;;;;4.75;2.17;;;;;;;;;;5055427;28;20471;-73
2023/08/07 03:09:08;;;;;;;10.65;2.35;;;;;;;;;;5056909;28;20041;-72
2023/08/07 03:11:34;;;;;;;7.47;2.33;;;;;;;;;;5057179;28;20036;-72
2023/08/07 03:14:00;;;;;;;6.80;2.42;;;;;;;;;;5053621;28;20025;-73
2023/08/07 03:16:26;;;;;;;7.90;2.28;;;;;;;;;;5054213;28;20471;-73
2023/08/07 03:18:52;;;;;;;8.85;2.22;;;;;;;;;;5054232;28;20029;-73
2023/08/07 03:21:18;;;;;;;9.63;2.38;;;;;;;;;;5055025;28;20100;-72
2023/08/07 03:23:44;;;;;;;6.28;2.00;;;;;;;;;;5053971;28;20049;-73
2023/08/07 03:26:11;;;;;;;8.13;2.13;;;;;;;;;;5053485;28;20108;-71
2023/08/07 03:28:37;;;;;;;7.57;2.20;;;;;;;;;;5054419;28;20079;-72
2023/08/07 03:31:03;;;;;;;6.32;1.92;;;;;;;;;;5054256;28;20442;-72
2023/08/07 03:33:29;;;;;;;5.40;2.05;;;;;;;;;;5054121;28;20075;-71
2023/08/07 03:35:55;;;;;;;8.60;2.28;;;;;;;;;;5054401;28;20029;-72
2023/08/07 03:38:21;;;;;;;4.15;2.10;;;;;;;;;;5054262;28;20028;-72
2023/08/07 03:40:47;;;;;;;6.72;2.08;;;;;;;;;;5054351;28;20517;-72
2023/08/07 03:43:13;;;;;;;6.20;2.15;;;;;;;;;;5052686;28;20029;-73
2023/08/07 03:45:40;;;;;;;8.55;2.75;;;;;;;;;;5050417;28;20029;-73
2023/08/07 03:48:06;;;;;;;4.65;2.08;;;;;;;;;;5060553;28;20093;-73
2023/08/07 03:50:34;;;;;;;9.98;2.80;;;;;;;;;;5059157;28;20482;-73
2023/08/07 03:53:01;;;;;;;7.65;2.30;;;;;;;;;;5065720;28;20028;-73
2023/08/07 03:55:27;;;;;;;8.00;2.75;;;;;;;;;;5061569;28;20039;-73
2023/08/07 03:57:53;;;;;;;10.63;2.60;;;;;;;;;;5065480;28;20032;-72
2023/08/07 04:00:20;;;;;;;9.75;2.40;;;;;;;;;;5058615;28;20036;-71
2023/08/07 04:02:46;;;;;;;13.65;3.65;;;;;;;;;;5052053;28;20523;-73
2023/08/07 04:05:12;;;;;;;8.30;2.88;;;;;;;;;;5065607;28;20079;-72
2023/08/07 04:07:38;;;;;;;14.30;3.08;;;;;;;;;;5069745;28;20486;-73
2023/08/07 04:10:04;;;;;;;9.60;2.75;;;;;;;;;;5066924;28;20028;-72
2023/08/07 04:12:30;;;;;;;9.70;3.08;;;;;;;;;;5073162;28;20035;-72
2023/08/07 04:14:56;;;;;;;8.82;2.75;;;;;;;;;;5073860;28;20405;-73
2023/08/07 04:17:22;;;;;;;11.77;3.03;;;;;;;;;;5073607;28;20025;-73
2023/08/07 04:19:48;;;;;;;9.60;2.97;;;;;;;;;;5073564;28;20028;-73
2023/08/07 04:22:14;;;;;;;10.25;2.80;;;;;;;;;;5073120;28;20532;-73
2023/08/07 04:24:40;;;;;;;10.50;3.50;;;;;;;;;;5073112;28;20181;-73
2023/08/07 04:27:08;;;;;;;11.95;3.00;;;;;;;;;;5073049;28;20533;-73
2023/08/07 04:29:34;;;;;;;15.18;3.30;;;;;;;;;;5073024;28;20059;-73
2023/08/07 04:32:00;;;;;;;13.05;3.22;;;;;;;;;;5072799;28;20024;-73
2023/08/07 04:34:26;;;;;;;9.95;2.92;;;;;;;;;;5073081;28;20123;-73
2023/08/07 04:36:53;;;;;;;14.52;3.33;;;;;;;;;;5073427;28;20446;-72
2023/08/07 04:39:19;;;;;;;9.90;3.22;;;;;;;;;;5073539;28;20020;-73
2023/08/07 04:41:45;;;;;;;8.77;2.60;;;;;;;;;;5072736;28;20032;-72
2023/08/07 04:44:11;;;;;;;10.55;3.05;;;;;;;;;;5073225;28;20038;-73
2023/08/07 04:46:37;;;;;;;10.77;2.67;;;;;;;;;;5072921;28;20021;-72
2023/08/07 04:49:03;;;;;;;12.85;3.33;;;;;;;;;;5067517;28;20035;-75
2023/08/07 04:51:31;;;;;;;16.25;3.85;;;;;;;;;;5062541;28;20020;-74
2023/08/07 04:53:57;;;;;;;17.17;3.58;;;;;;;;;;5058238;28;20079;-75
2023/08/07 04:56:23;;;;;;;11.88;3.45;;;;;;;;;;5065646;28;20449;-73
2023/08/07 04:58:49;;;;;;;8.82;2.67;;;;;;;;;;5056855;28;20025;-74
2023/08/07 05:01:15;;;;;;;13.52;3.33;;;;;;;;;;5059126;28;20081;-74
2023/08/07 05:03:41;;;;;;;11.98;3.30;;;;;;;;;;5064936;28;20098;-73
2023/08/07 05:06:07;;;;;;;13.02;3.92;;;;;;;;;;5057757;28;20491;-74
2023/08/07 05:08:33;;;;;;;14.20;2.97;;;;;;;;;;5058800;28;20112;-72
2023/08/07 05:10:59;;;;;;;14.40;2.80;;;;;;;;;;5061799;28;20272;-71
2023/08/07 05:13:25;;;;;;;7.53;2.70;;;;;;;;;;5071223;28;20024;-71
2023/08/07 05:15:51;;;;;;;16.95;2.83;;;;;;;;;;5072333;28;20533;-72
2023/08/07 05:18:19;;;;;;;16.73;2.90;;;;;;;;;;5072199;28;20086;-73
2023/08/07 05:20:45;;;;;;;22.45;3.58;;;;;;;;;;5072519;28;20016;-71
2023/08/07 05:23:11;;;;;;;8.77;3.25;;;;;;;;;;5071806;28;20500;-72
2023/08/07 05:25:37;;;;;;;20.88;3.70;;;;;;;;;;5072101;28;20032;-72
2023/08/07 05:28:03;;;;;;;16.52;3.58;;;;;;;;;;5059819;28;20075;-75
2023/08/07 05:30:29;;;;;;;10.50;2.75;;;;;;;;;;5062854;28;20078;-74
2023/08/07 05:32:55;;;;;;;11.55;2.85;;;;;;;;;;5061008;28;20444;-75
2023/08/07 05:35:21;;;;;;;17.38;2.95;;;;;;;;;;5057519;28;20029;-74
2023/08/07 05:37:47;;;;;;;13.02;2.97;;;;;;;;;;5053492;28;20129;-76
2023/08/07 05:40:13;;;;;;;19.15;3.35;;;;;;;;;;5055998;28;20036;-76
2023/08/07 05:42:41;;;;;;;15.25;3.70;;;;;;;;;;5062890;28;20451;-77
2023/08/07 05:45:08;;;;;;;11.98;2.90;;;;;;;;;;5054490;28;20014;-75
2023/08/07 05:47:34;;;;;;;19.65;3.78;;;;;;;;;;5055935;28;20029;-74
2023/08/07 05:50:00;;;;;;;22.13;3.65;;;;;;;;;;5061179;28;20032;-75
2023/08/07 05:52:26;;;;;;;18.95;3.20;;;;;;;;;;5067729;28;20275;-75
2023/08/07 05:54:52;;;;;;;10.50;2.63;;;;;;;;;;5053152;28;20506;-76
2023/08/07 05:57:18;;;;;;;13.65;2.70;;;;;;;;;;5066811;28;20074;-74
2023/08/07 05:59:44;;;;;;;21.10;3.67;;;;;;;;;;5063044;28;20418;-75
2023/08/07 06:02:11;;;;;;;21.95;3.75;;;;;;;;;;5056739;28;20467;-75
2023/08/07 06:04:37;;;;;;;15.15;3.88;;;;;;;;;;5055312;28;20036;-74
2023/08/07 06:07:04;;;;;;;21.80;3.58;;;;;;;;;;5063082;28;20430;-76
2023/08/07 06:09:29;;;;;;;20.95;3.40;;;;;;;;;;5056570;28;20082;-76
2023/08/07 06:11:55;;;;;;;24.40;3.55;;;;;;;;;;5060313;28;20032;-76
2023/08/07 06:14:21;;;;;;;17.77;3.88;;;;;;;;;;5063997;28;20024;-75
2023/08/07 06:16:47;;;;;;;22.95;3.55;;;;;;;;;;5065956;28;20068;-73
2023/08/07 06:19:13;;;;;;;27.15;4.25;;;;;;;;;;5076462;28;20029;-74
2023/08/07 06:21:40;;;;;;;19.88;3.47;;;;;;;;;;5088482;28;20039;-75
2023/08/07 06:24:06;;;;;;;21.63;3.65;;;;;;;;;;5085622;28;20036;-74
2023/08/07 06:26:32;;;;;;;29.15;4.53;;;;;;;;;;5074576;28;20044;-74
2023/08/07 06:28:58;;;;;;;19.42;3.70;;;;;;;;;;5077884;28;20483;-76
2023/08/07 06:31:24;;;;;;;24.08;3.53;;;;;;;;;;5062186;28;20033;-76
2023/08/07 06:33:50;;;;;;;23.48;4.00;;;;;;;;;;5065388;28;20021;-73
2023/08/07 06:36:16;;;;;;;23.98;4.28;;;;;;;;;;5053982;28;20028;-74
2023/08/07 06:38:42;;;;;;;32.03;4.47;;;;;;;;;;5067478;28;20113;-73
2023/08/07 06:41:08;;;;;;;27.55;4.50;;;;;;;;;;5061635;28;20036;-73
2023/08/07 06:43:34;;;;;;;40.35;4.78;;;;;;;;;;5053607;28;20509;-74
2023/08/07 06:46:00;;;;;;;29.88;4.40;;;;;;;;;;5061426;28;20031;-76
2023/08/07 06:48:26;;;;;;;28.75;5.15;;;;;;;;;;5071033;28;20843;-73
2023/08/07 06:50:52;;;;;;;32.60;4.03;;;;;;;;;;5055414;28;20054;-74
2023/08/07 06:53:18;;;;;;;26.20;5.18;;;;;;;;;;5059761;28;20600;-75
2023/08/07 06:55:44;;;;;;;23.23;4.35;;;;;;;;;;5056000;28;20035;-75
2023/08/07 06:58:11;;;;;;;33.60;4.47;;;;;;;;;;5058194;28;20071;-75
2023/08/07 07:00:37;;;;;;;30.15;4.90;;;;;;;;;;5050209;28;20048;-74
2023/08/07 07:03:03;;;;;;;29.08;4.57;;;;;;;;;;5060644;28;20108;-78
2023/08/07 07:05:30;;;;;;;30.13;4.97;;;;;;;;;;5068504;28;20028;-73
2023/08/07 07:07:56;;;;;;;35.35;5.70;;;;;;;;;;5070754;28;20036;-74
2023/08/07 07:10:22;;;;;;;26.85;5.03;;;;;;;;;;5053688;28;20369;-71
2023/08/07 07:12:48;;;;;;;23.38;4.47;;;;;;;;;;5050576;28;20112;-72
2023/08/07 07:15:14;;;;;;;26.10;5.10;;;;;;;;;;5048736;28;20029;-72
2023/08/07 07:17:40;;;;;;;25.83;4.75;;;;;;;;;;5057474;28;20470;-71
2023/08/07 07:20:09;;;;;;;30.02;5.25;;;;;;;;;;5034212;28;20551;-72
2023/08/07 07:22:35;;;;;;;25.33;5.18;;;;;;;;;;5033879;28;20022;-72
2023/08/07 07:25:01;;;;;;;25.00;5.10;;;;;;;;;;5033657;28;20032;-71
2023/08/07 07:27:27;;;;;;;25.77;5.20;;;;;;;;;;5033588;28;20395;-70
2023/08/07 07:29:53;;;;;;;22.75;4.75;;;;;;;;;;5033535;28;20113;-70
2023/08/07 07:32:19;;;;;;;27.20;5.15;;;;;;;;;;5032330;28;20467;-72
2023/08/07 07:34:45;;;;;;;25.45;5.38;;;;;;;;;;5033061;28;20029;-70
2023/08/07 07:37:14;;;;;;;23.17;5.15;;;;;;;;;;5032901;28;20041;-70
2023/08/07 07:39:39;;;;;;;24.70;5.18;;;;;;;;;;5033103;28;20021;-73
2023/08/07 07:42:06;;;;;;;28.10;4.93;;;;;;;;;;5033248;28;20119;-72
2023/08/07 07:44:33;;;;;;;23.65;5.05;;;;;;;;;;5033114;28;20039;-72
2023/08/07 07:46:59;;;;;;;32.40;5.22;;;;;;;;;;5032894;28;20036;-73
2023/08/07 07:49:25;;;;;;;21.88;4.65;;;;;;;;;;5033581;28;20108;-75
2023/08/07 07:51:51;;;;;;;20.48;5.07;;;;;;;;;;5033291;28;20499;-75
2023/08/07 07:54:17;;;;;;;27.75;5.55;;;;;;;;;;5034897;28;20056;-73
2023/08/07 07:56:44;;;;;;;24.65;4.82;;;;;;;;;;5047937;28;20025;-72
2023/08/07 07:59:10;;;;;;;29.55;5.75;;;;;;;;;;5058369;28;20037;-71
2023/08/07 08:01:36;;;;;;;24.08;4.93;;;;;;;;;;5057466;28;20017;-78
2023/08/07 08:04:02;;;;;;;22.33;4.30;;;;;;;;;;5054880;28;20101;-73
2023/08/07 08:06:28;;;;;;;27.95;5.35;;;;;;;;;;5055648;28;20029;-73
2023/08/07 08:08:54;;;;;;;26.83;4.50;;;;;;;;;;5048922;28;20387;-72
2023/08/07 08:11:20;;;;;;;23.90;4.75;;;;;;;;;;5034143;28;20021;-74
2023/08/07 08:13:46;;;;;;;22.88;4.95;;;;;;;;;;5035035;28;20553;-73
2023/08/07 08:16:11;;;;;;;29.08;5.35;;;;;;;;;;5036951;28;20032;-73
2023/08/07 08:18:37;;;;;;;26.67;5.22;;;;;;;;;;5035973;28;20037;-73
2023/08/07 08:21:03;;;;;;;24.13;4.97;;;;;;;;;;5033932;28;20452;-73
2023/08/07 08:23:29;;;;;;;29.20;5.15;;;;;;;;;;5033397;28;20033;-73
2023/08/07 08:25:55;;;;;;;34.08;5.45;;;;;;;;;;5037393;28;20021;-72
2023/08/07 08:28:21;;;;;;;30.92;5.75;;;;;;;;;;5034951;28;20033;-72
2023/08/07 08:30:48;;;;;;;27.10;4.95;;;;;;;;;;5035348;28;20026;-72
2023/08/07 08:33:14;;;;;;;29.25;5.88;;;;;;;;;;5032594;28;20034;-72
2023/08/07 08:35:41;;;;;;;27.33;5.53;;;;;;;;;;5033117;28;20037;-73
2023/08/07 08:38:07;;;;;;;40.00;5.85;;;;;;;;;;5033316;28;20113;-73
2023/08/07 08:40:34;;;;;;;38.08;5.38;;;;;;;;;;5032870;28;20056;-74
2023/08/07 08:43:04;;;;;;;36.95;5.88;;;;;;;;;;5032530;28;20030;-74
2023/08/07 08:45:34;;;;;;;30.40;5.50;;;;;;;;;;5033279;28;20444;-72
2023/08/07 08:48:02;;;;;;;29.33;5.30;;;;;;;;;;5032994;28;20030;-75
2023/08/07 08:50:28;;;;;;;27.33;5.88;;;;;;;;;;5032564;28;20037;-73
2023/08/07 08:52:56;;;;;;;33.97;6.13;;;;;;;;;;5032323;28;20037;-73
2023/08/07 08:55:22;;;;;;;32.83;5.50;;;;;;;;;;5033220;28;20057;-73
2023/08/07 08:57:49;;;;;;;45.30;5.95;;;;;;;;;;5032484;28;20048;-77
2023/08/07 09:00:21;;;;;;;27.05;5.47;;;;;;;;;;5034408;28;20028;-79
2023/08/07 09:02:50;;;;;;;30.08;5.85;;;;;;;;;;5033830;28;20101;-80
2023/08/07 09:05:17;;;;;;;30.23;5.80;;;;;;;;;;5034084;28;20030;-75
2023/08/07 09:07:43;;;;;;;28.38;5.07;;;;;;;;;;5032849;28;20438;-76
2023/08/07 09:10:13;;;;;;;31.50;5.88;;;;;;;;;;5032440;28;20091;-72
2023/08/07 09:12:41;;;;;;;26.88;4.75;;;;;;;;;;5032083;28;20025;-73
2023/08/07 09:15:08;;;;;;;29.70;4.32;;;;;;;;;;5033044;28;20475;-74
2023/08/07 09:17:39;;;;;;;34.58;5.20;;;;;;;;;;5032749;28;20025;-74
2023/08/07 09:20:08;;;;;;;26.35;4.80;;;;;;;;;;5032682;28;20024;-72
2023/08/07 09:22:34;;;;;;;21.20;4.90;;;;;;;;;;5032052;28;20028;-75
2023/08/07 09:25:00;;;;;;;19.05;5.03;;;;;;;;;;5032434;28;20026;-71
2023/08/07 09:27:26;;;;;;;22.73;4.30;;;;;;;;;;5033170;28;20030;-73
2023/08/07 09:29:54;;;;;;;25.23;5.57;;;;;;;;;;5031865;28;20148;-76
2023/08/07 09:32:23;;;;;;;23.02;4.80;;;;;;;;;;5032012;28;20033;-72
2023/08/07 09:34:49;;;;;;;28.30;4.80;;;;;;;;;;5033750;28;20079;-71
2023/08/07 09:37:15;;;;;;;24.40;4.40;;;;;;;;;;5033596;28;20034;-72
2023/08/07 09:39:41;;;;;;;27.95;4.80;;;;;;;;;;5032115;28;20109;-73
2023/08/07 09:42:17;;;;;;;20.40;4.20;;;;;;;;;;5033648;28;20215;-74
2023/08/07 09:44:48;;;;;;;21.85;4.55;;;;;;;;;;5033279;28;20148;-74
2023/08/07 09:47:18;;;;;;;23.55;3.88;;;;;;;;;;5036633;28;20021;-73
2023/08/07 09:49:44;;;;;;;25.17;4.60;;;;;;;;;;5042594;28;20036;-71
2023/08/07 09:52:13;;;;;;;20.13;4.10;;;;;;;;;;5043525;28;20148;-73
2023/08/07 09:54:39;;;;;;;25.35;4.97;;;;;;;;;;5042403;28;20022;-73
2023/08/07 09:57:06;;;;;;;19.67;4.50;;;;;;;;;;5047021;28;20026;-72
2023/08/07 09:59:33;;;;;;;23.20;4.50;;;;;;;;;;5032435;28;20024;-73
2023/08/07 10:02:01;;;;;;;20.30;5.05;;;;;;;;;;5032012;28;20025;-72
2023/08/07 10:04:27;;;;;;;20.63;5.97;;;;;;;;;;5032521;28;20025;-72
2023/08/07 10:06:53;;;;;;;18.77;4.35;;;;;;;;;;5032162;28;20037;-73
2023/08/07 10:09:19;;;;;;;23.42;4.72;;;;;;;;;;5031846;28;20034;-73
2023/08/07 10:11:45;;;;;;;22.60;4.65;;;;;;;;;;5031090;28;20088;-71
2023/08/07 10:14:12;;;;;;;19.23;4.75;;;;;;;;;;5031279;28;20035;-72
2023/08/07 10:16:41;;;;;;;27.60;4.93;;;;;;;;;;5031231;28;20052;-72
2023/08/07 10:19:07;;;;;;;20.50;4.43;;;;;;;;;;5031708;28;20047;-77
2023/08/07 10:21:36;;;;;;;27.00;4.57;;;;;;;;;;5033100;28;20036;-73
2023/08/07 10:24:04;;;;;;;26.23;4.85;;;;;;;;;;5034045;28;20436;-72
2023/08/07 10:26:30;;;;;;;17.38;4.18;;;;;;;;;;5032876;28;20021;-73
2023/08/07 10:28:57;;;;;;;28.42;5.13;;;;;;;;;;5033321;28;20105;-73
2023/08/07 10:31:24;;;;;;;21.25;4.25;;;;;;;;;;5033164;28;20075;-74
2023/08/07 10:33:50;;;;;;;24.52;4.70;;;;;;;;;;5032377;28;20075;-73
2023/08/07 10:36:17;;;;;;;25.35;4.60;;;;;;;;;;5035767;28;20029;-75
2023/08/07 10:38:43;;;;;;;23.77;4.05;;;;;;;;;;5037573;28;20041;-72
2023/08/07 10:41:13;;;;;;;22.88;4.05;;;;;;;;;;5034768;28;20021;-73
2023/08/07 10:43:40;;;;;;;21.63;4.55;;;;;;;;;;5032805;28;20093;-72
2023/08/07 10:46:26;;;;;;;23.55;4.50;;;;;;;;;;5031706;28;20014;-73
2023/08/07 10:48:59;;;;;;;22.02;4.63;;;;;;;;;;5032105;28;20043;-73
2023/08/07 10:51:32;;;;;;;20.83;4.05;;;;;;;;;;5032740;28;20068;-73
2023/08/07 10:54:00;;;;;;;25.00;4.10;;;;;;;;;;5032614;28;20076;-72
2023/08/07 10:56:30;;;;;;;23.88;4.88;;;;;;;;;;5034988;28;20060;-72
2023/08/07 10:58:56;;;;;;;26.80;5.07;;;;;;;;;;5037021;28;20032;-72
2023/08/07 11:01:22;;;;;;;15.68;3.92;;;;;;;;;;5035872;28;20026;-72
2023/08/07 11:03:50;;;;;;;17.27;3.58;;;;;;;;;;5035083;28;20414;-71
2023/08/07 11:06:16;;;;;;;21.55;4.22;;;;;;;;;;5035112;28;20519;-71
2023/08/07 11:08:42;;;;;;;20.00;4.75;;;;;;;;;;5034589;28;20072;-72
2023/08/07 11:11:09;;;;;;;27.23;3.95;;;;;;;;;;5036420;28;20021;-72
2023/08/07 11:13:35;;;;;;;36.08;4.43;;;;;;;;;;5036334;28;20056;-72
2023/08/07 11:16:02;;;;;;;24.48;3.80;;;;;;;;;;5035208;28;20487;-73
2023/08/07 11:18:28;;;;;;;20.90;4.15;;;;;;;;;;5037102;28;20033;-76
2023/08/07 11:20:56;;;;;;;23.30;4.05;;;;;;;;;;5040671;28;20038;-73
2023/08/07 11:23:28;;;;;;;18.77;3.63;;;;;;;;;;5035010;28;20029;-75
2023/08/07 11:25:54;;;;;;;21.25;5.15;;;;;;;;;;5034340;28;20029;-73
2023/08/07 11:28:21;;;;;;;20.80;4.03;;;;;;;;;;5034591;28;20395;-74
2023/08/07 11:30:49;;;;;;;21.02;4.07;;;;;;;;;;5034444;28;20029;-74
2023/08/07 11:33:15;;;;;;;18.13;3.58;;;;;;;;;;5036053;28;20037;-76
2023/08/07 11:35:42;;;;;;;22.25;3.53;;;;;;;;;;5042289;28;20025;-75
2023/08/07 11:38:08;;;;;;;27.02;3.97;;;;;;;;;;5034645;28;20068;-73
2023/08/07 11:40:34;;;;;;;23.95;3.80;;;;;;;;;;5034856;28;20045;-73
2023/08/07 11:43:00;;;;;;;22.77;4.03;;;;;;;;;;5064526;28;20005;-72
2023/08/07 11:45:27;;;;;;;24.48;3.60;;;;;;;;;;5058403;28;20482;-74
2023/08/07 11:47:55;;;;;;;13.77;3.08;;;;;;;;;;5036983;28;20030;-72
2023/08/07 11:50:21;;;;;;;14.20;3.10;;;;;;;;;;5036023;28;20083;-71
2023/08/07 11:52:47;;;;;;;13.88;2.88;;;;;;;;;;5036675;28;20068;-73
2023/08/07 11:55:15;;;;;;;16.33;2.83;;;;;;;;;;5036500;28;20041;-72
2023/08/07 11:57:42;;;;;;;20.63;3.70;;;;;;;;;;5032651;28;20056;-72
2023/08/07 12:00:13;;;;;;;20.90;2.92;;;;;;;;;;5034011;28;20078;-73
2023/08/07 12:02:48;;;;;;;18.75;3.70;;;;;;;;;;5034712;28;20578;-72
2023/08/07 12:05:14;;;;;;;14.35;3.85;;;;;;;;;;5034172;28;20068;-74
2023/08/07 12:07:41;;;;;;;17.58;3.45;;;;;;;;;;5032002;28;20383;-73
2023/08/07 12:10:07;;;;;;;23.10;3.20;;;;;;;;;;5033507;28;20029;-71
2023/08/07 12:12:34;;;;;;;14.80;2.75;;;;;;;;;;5032719;28;20204;-71
2023/08/07 12:15:00;;;;;;;13.75;3.30;;;;;;;;;;5033603;28;20499;-73
2023/08/07 12:17:26;;;;;;;21.50;3.22;;;;;;;;;;5033086;28;20091;-72
2023/08/07 12:19:52;;;;;;;13.60;2.30;;;;;;;;;;5033143;28;20026;-73
2023/08/07 12:22:21;;;;;;;16.38;3.20;;;;;;;;;;5032417;28;20021;-72
2023/08/07 12:24:47;;;;;;;14.90;2.90;;;;;;;;;;5033274;28;20029;-72
2023/08/07 12:27:13;;;;;;;17.05;3.50;;;;;;;;;;5033178;28;20543;-74
2023/08/07 12:29:39;;;;;;;22.70;3.97;;;;;;;;;;5033340;28;20068;-73
2023/08/07 12:32:05;;;;;;;19.98;4.25;;;;;;;;;;5033037;28;20030;-71
2023/08/07 12:34:32;;;;;;;21.15;3.65;;;;;;;;;;5034056;28;20025;-73
2023/08/07 12:36:58;;;;;;;18.70;3.92;;;;;;;;;;5033815;28;20053;-74
2023/08/07 12:39:24;;;;;;;23.30;4.18;;;;;;;;;;5035604;28;20037;-74
2023/08/07 12:41:50;;;;;;;20.10;3.58;;;;;;;;;;5036460;28;20536;-75
2023/08/07 12:44:16;;;;;;;25.45;4.22;;;;;;;;;;5033901;28;20018;-76
2023/08/07 12:46:42;;;;;;;17.50;3.75;;;;;;;;;;5040628;28;20494;-72
2023/08/07 12:49:11;;;;;;;17.02;3.90;;;;;;;;;;5062615;28;20302;-72
2023/08/07 12:51:37;;;;;;;17.30;3.45;;;;;;;;;;5057729;28;20087;-72
2023/08/07 12:54:03;;;;;;;19.98;3.95;;;;;;;;;;5067069;28;20658;-73
2023/08/07 12:56:29;;;;;;;15.95;4.18;;;;;;;;;;5052281;28;20029;-73
2023/08/07 12:58:55;;;;;;;19.23;3.53;;;;;;;;;;5072362;28;20154;-72
2023/08/07 13:01:21;;;;;;;18.05;3.25;;;;;;;;;;5064528;28;20013;-73
2023/08/07 13:03:47;;;;;;;12.75;3.25;;;;;;;;;;5063496;28;20029;-74
2023/08/07 13:06:13;;;;;;;16.13;3.10;;;;;;;;;;5063725;28;20832;-72
2023/08/07 13:08:39;;;;;;;18.63;3.17;;;;;;;;;;5060027;28;20072;-73
2023/08/07 13:11:05;;;;;;;16.92;3.33;;;;;;;;;;5067406;28;20048;-72
2023/08/07 13:13:31;;;;;;;15.73;2.97;;;;;;;;;;5053905;28;20032;-73
2023/08/07 13:15:57;;;;;;;15.32;3.55;;;;;;;;;;5072570;28;20474;-72
2023/08/07 13:18:23;;;;;;;21.73;4.15;;;;;;;;;;5066619;28;20053;-73
2023/08/07 13:20:49;;;;;;;17.52;3.78;;;;;;;;;;5069311;28;20086;-71
2023/08/07 13:23:15;;;;;;;13.45;3.75;;;;;;;;;;5063244;28;20116;-74
2023/08/07 13:25:41;;;;;;;19.67;4.35;;;;;;;;;;5067882;28;20104;-75
2023/08/07 13:28:07;;;;;;;18.60;4.15;;;;;;;;;;5052835;28;20035;-72
2023/08/07 13:30:33;;;;;;;20.45;4.55;;;;;;;;;;5055749;28;20043;-73
2023/08/07 13:33:00;;;;;;;24.15;4.75;;;;;;;;;;5073682;28;20028;-72
2023/08/07 13:35:26;;;;;;;22.02;4.30;;;;;;;;;;5061507;28;20060;-72
2023/08/07 13:37:52;;;;;;;19.92;4.30;;;;;;;;;;5052733;28;20070;-71
2023/08/07 13:40:18;;;;;;;22.42;4.30;;;;;;;;;;5052694;28;20398;-72
2023/08/07 13:42:44;;;;;;;23.58;4.07;;;;;;;;;;5054698;28;20025;-72
2023/08/07 13:45:10;;;;;;;25.58;5.07;;;;;;;;;;5063616;28;20487;-73
2023/08/07 13:47:37;;;;;;;27.33;4.97;;;;;;;;;;5060124;28;20071;-71
2023/08/07 13:50:04;;;;;;;29.70;5.05;;;;;;;;;;5058612;28;20108;-71
2023/08/07 13:52:30;;;;;;;27.13;4.90;;;;;;;;;;5071173;28;20028;-71
2023/08/07 13:54:56;;;;;;;24.08;4.55;;;;;;;;;;5058848;28;20044;-72
2023/08/07 13:57:22;;;;;;;28.25;5.32;;;;;;;;;;5051021;28;20032;-71
2023/08/07 13:59:48;;;;;;;25.90;4.65;;;;;;;;;;5062372;28;20504;-72
2023/08/07 14:02:14;;;;;;;27.88;4.45;;;;;;;;;;5051099;28;20100;-74
2023/08/07 14:04:40;;;;;;;20.65;4.07;;;;;;;;;;5051537;28;20149;-73
2023/08/07 14:07:06;;;;;;;25.65;4.63;;;;;;;;;;5052636;28;20033;-73
2023/08/07 14:09:32;;;;;;;23.13;5.00;;;;;;;;;;5051030;28;20025;-73
2023/08/07 14:11:58;;;;;;;25.48;4.75;;;;;;;;;;5051359;28;20108;-73
2023/08/07 14:14:24;;;;;;;24.92;4.55;;;;;;;;;;5051814;28;20096;-74
2023/08/07 14:16:50;;;;;;;23.70;4.32;;;;;;;;;;5050123;28;20113;-71
2023/08/07 14:19:16;;;;;;;21.90;4.32;;;;;;;;;;5050055;28;20534;-72
2023/08/07 14:21:42;;;;;;;24.98;4.43;;;;;;;;;;5041965;28;20108;-72
2023/08/07 14:24:08;;;;;;;27.30;4.90;;;;;;;;;;5058807;28;20552;-73
2023/08/07 14:26:34;;;;;;;18.63;4.47;;;;;;;;;;5040724;28;20025;-72
2023/08/07 14:29:00;;;;;;;24.13;4.50;;;;;;;;;;5030905;28;20547;-72